sensor_id;sensor_type;location;lat;lon;timestamp;pressure;altitude;pressure_sealevel;temperature;humidity
41306;BME280;27051;50.376;19.152;2024-03-08T00:04:40;98789.46;;;2.15;57.23
41306;BME280;27051;50.376;19.152;2024-03-08T00:07:27;98786.00;;;2.09;57.33
41306;BME280;27051;50.376;19.152;2024-03-08T00:09:54;98787.88;;;2.08;57.40
41306;BME280;27051;50.376;19.152;2024-03-08T00:12:24;98784.15;;;2.06;57.69
41306;BME280;27051;50.376;19.152;2024-03-08T00:14:51;98782.04;;;2.06;57.60
41306;BME280;27051;50.376;19.152;2024-03-08T00:17:18;98783.26;;;2.04;57.64
41306;BME280;27051;50.376;19.152;2024-03-08T00:19:45;98785.70;;;2.04;57.52
41306;BME280;27051;50.376;19.152;2024-03-08T00:22:32;98787.55;;;2.12;57.82
41306;BME280;27051;50.376;19.152;2024-03-08T00:25:08;98786.91;;;2.24;57.91
41306;BME280;27051;50.376;19.152;2024-03-08T00:27:38;98783.88;;;2.25;57.45
41306;BME280;27051;50.376;19.152;2024-03-08T00:30:06;98784.30;;;2.21;57.58
41306;BME280;27051;50.376;19.152;2024-03-08T00:32:36;98780.55;;;2.20;57.44
41306;BME280;27051;50.376;19.152;2024-03-08T00:35:04;98779.75;;;2.19;57.66
41306;BME280;27051;50.376;19.152;2024-03-08T00:37:40;98783.35;;;2.17;57.29
41306;BME280;27051;50.376;19.152;2024-03-08T00:40:11;98781.14;;;1.98;57.32
41306;BME280;27051;50.376;19.152;2024-03-08T00:42:41;98778.60;;;1.89;57.60
41306;BME280;27051;50.376;19.152;2024-03-08T00:45:17;98778.64;;;1.82;57.65
41306;BME280;27051;50.376;19.152;2024-03-08T00:47:44;98773.92;;;1.80;57.83
41306;BME280;27051;50.376;19.152;2024-03-08T00:50:11;98773.66;;;1.84;57.90
41306;BME280;27051;50.376;19.152;2024-03-08T00:52:41;98774.46;;;1.96;57.86
41306;BME280;27051;50.376;19.152;2024-03-08T00:55:17;98770.75;;;1.90;57.70
41306;BME280;27051;50.376;19.152;2024-03-08T00:57:47;98772.08;;;1.80;57.80
41306;BME280;27051;50.376;19.152;2024-03-08T01:00:17;98770.59;;;1.77;57.83
41306;BME280;27051;50.376;19.152;2024-03-08T01:02:45;98768.95;;;1.78;57.88
41306;BME280;27051;50.376;19.152;2024-03-08T01:05:13;98768.24;;;1.75;57.91
41306;BME280;27051;50.376;19.152;2024-03-08T01:07:40;98765.65;;;1.70;57.93
41306;BME280;27051;50.376;19.152;2024-03-08T01:10:08;98767.14;;;1.72;58.00
41306;BME280;27051;50.376;19.152;2024-03-08T01:12:35;98759.48;;;1.71;57.93
41306;BME280;27051;50.376;19.152;2024-03-08T01:15:08;98758.55;;;1.76;58.08
41306;BME280;27051;50.376;19.152;2024-03-08T01:17:37;98751.40;;;1.76;58.28
41306;BME280;27051;50.376;19.152;2024-03-08T01:20:04;98750.07;;;1.74;57.90
41306;BME280;27051;50.376;19.152;2024-03-08T01:22:32;98748.69;;;1.71;57.92
41306;BME280;27051;50.376;19.152;2024-03-08T01:24:59;98748.52;;;1.65;58.06
41306;BME280;27051;50.376;19.152;2024-03-08T01:27:46;98744.45;;;1.59;58.29
41306;BME280;27051;50.376;19.152;2024-03-08T01:30:14;98747.57;;;1.67;58.35
41306;BME280;27051;50.376;19.152;2024-03-08T01:35:18;98746.78;;;1.67;58.27
41306;BME280;27051;50.376;19.152;2024-03-08T01:37:46;98745.13;;;1.65;58.21
41306;BME280;27051;50.376;19.152;2024-03-08T01:40:14;98740.04;;;1.71;58.45
41306;BME280;27051;50.376;19.152;2024-03-08T01:42:44;98732.20;;;1.71;58.25
41306;BME280;27051;50.376;19.152;2024-03-08T01:45:11;98733.64;;;1.72;58.50
41306;BME280;27051;50.376;19.152;2024-03-08T01:48:02;98733.31;;;1.88;58.46
41306;BME280;27051;50.376;19.152;2024-03-08T01:50:29;98735.86;;;1.84;58.06
41306;BME280;27051;50.376;19.152;2024-03-08T01:52:56;98735.23;;;1.81;58.16
41306;BME280;27051;50.376;19.152;2024-03-08T01:55:31;98729.09;;;1.79;58.33
41306;BME280;27051;50.376;19.152;2024-03-08T01:57:59;98725.85;;;1.80;58.07
41306;BME280;27051;50.376;19.152;2024-03-08T02:00:26;98726.64;;;1.72;58.10
41306;BME280;27051;50.376;19.152;2024-03-08T02:03:01;98724.85;;;1.68;58.22
41306;BME280;27051;50.376;19.152;2024-03-08T02:05:36;98721.66;;;1.67;58.29
41306;BME280;27051;50.376;19.152;2024-03-08T02:08:11;98716.35;;;1.72;58.28
41306;BME280;27051;50.376;19.152;2024-03-08T02:10:39;98720.91;;;1.68;58.10
41306;BME280;27051;50.376;19.152;2024-03-08T02:13:10;98715.45;;;1.58;58.10
41306;BME280;27051;50.376;19.152;2024-03-08T02:15:58;98714.86;;;1.54;58.23
41306;BME280;27051;50.376;19.152;2024-03-08T02:18:27;98712.60;;;1.60;58.31
41306;BME280;27051;50.376;19.152;2024-03-08T02:20:58;98713.77;;;1.53;58.19
41306;BME280;27051;50.376;19.152;2024-03-08T02:23:28;98713.65;;;1.48;58.35
41306;BME280;27051;50.376;19.152;2024-03-08T02:25:56;98716.39;;;1.37;58.13
41306;BME280;27051;50.376;19.152;2024-03-08T02:28:33;98714.86;;;1.40;58.53
41306;BME280;27051;50.376;19.152;2024-03-08T02:31:03;98711.11;;;1.58;58.64
41306;BME280;27051;50.376;19.152;2024-03-08T02:33:30;98711.53;;;1.66;58.43
41306;BME280;27051;50.376;19.152;2024-03-08T02:35:57;98711.00;;;1.64;58.43
41306;BME280;27051;50.376;19.152;2024-03-08T02:38:24;98706.87;;;1.62;58.23
41306;BME280;27051;50.376;19.152;2024-03-08T02:40:53;98705.23;;;1.62;58.26
41306;BME280;27051;50.376;19.152;2024-03-08T02:43:21;98704.59;;;1.57;58.10
41306;BME280;27051;50.376;19.152;2024-03-08T02:45:49;98704.64;;;1.46;58.03
41306;BME280;27051;50.376;19.152;2024-03-08T02:48:16;98699.33;;;1.35;58.16
41306;BME280;27051;50.376;19.152;2024-03-08T02:50:43;98704.63;;;1.28;58.17
41306;BME280;27051;50.376;19.152;2024-03-08T02:53:11;98709.07;;;1.29;58.22
41306;BME280;27051;50.376;19.152;2024-03-08T02:55:38;98709.81;;;1.35;58.59
41306;BME280;27051;50.376;19.152;2024-03-08T02:58:06;98708.57;;;1.52;58.51
41306;BME280;27051;50.376;19.152;2024-03-08T03:00:34;98712.86;;;1.50;58.31
41306;BME280;27051;50.376;19.152;2024-03-08T03:03:01;98712.01;;;1.46;58.42
41306;BME280;27051;50.376;19.152;2024-03-08T03:05:31;98712.48;;;1.43;58.19
41306;BME280;27051;50.376;19.152;2024-03-08T03:07:59;98710.61;;;1.33;58.18
41306;BME280;27051;50.376;19.152;2024-03-08T03:10:31;98714.73;;;1.34;58.47
41306;BME280;27051;50.376;19.152;2024-03-08T03:13:11;98710.05;;;1.44;58.41
41306;BME280;27051;50.376;19.152;2024-03-08T03:18:26;98716.17;;;1.26;58.57
41306;BME280;27051;50.376;19.152;2024-03-08T03:23:43;98715.61;;;1.40;58.46
41306;BME280;27051;50.376;19.152;2024-03-08T03:26:31;98713.48;;;1.33;58.25
41306;BME280;27051;50.376;19.152;2024-03-08T03:28:57;98713.23;;;1.11;58.21
41306;BME280;27051;50.376;19.152;2024-03-08T03:31:24;98713.06;;;1.07;58.40
41306;BME280;27051;50.376;19.152;2024-03-08T03:34:20;98711.98;;;0.99;58.23
41306;BME280;27051;50.376;19.152;2024-03-08T03:36:46;98712.21;;;0.88;58.37
41306;BME280;27051;50.376;19.152;2024-03-08T03:39:24;98711.11;;;0.78;58.36
41306;BME280;27051;50.376;19.152;2024-03-08T03:41:51;98707.61;;;0.77;58.42
41306;BME280;27051;50.376;19.152;2024-03-08T03:44:20;98707.95;;;0.78;58.69
41306;BME280;27051;50.376;19.152;2024-03-08T03:46:48;98709.33;;;0.78;58.75
41306;BME280;27051;50.376;19.152;2024-03-08T03:49:15;98706.90;;;0.83;58.71
41306;BME280;27051;50.376;19.152;2024-03-08T03:51:51;98707.98;;;0.90;58.66
41306;BME280;27051;50.376;19.152;2024-03-08T03:54:24;98706.54;;;0.85;58.46
41306;BME280;27051;50.376;19.152;2024-03-08T03:57:00;98703.31;;;0.86;58.59
41306;BME280;27051;50.376;19.152;2024-03-08T03:59:30;98701.02;;;0.80;58.71
41306;BME280;27051;50.376;19.152;2024-03-08T04:02:06;98699.23;;;0.82;58.79
41306;BME280;27051;50.376;19.152;2024-03-08T04:04:44;98697.05;;;0.80;58.76
41306;BME280;27051;50.376;19.152;2024-03-08T04:07:11;98697.20;;;0.82;58.95
41306;BME280;27051;50.376;19.152;2024-03-08T04:09:39;98698.69;;;0.77;58.77
41306;BME280;27051;50.376;19.152;2024-03-08T04:12:06;98692.91;;;0.77;59.08
41306;BME280;27051;50.376;19.152;2024-03-08T04:14:33;98692.05;;;0.86;59.17
41306;BME280;27051;50.376;19.152;2024-03-08T04:17:08;98689.69;;;0.97;59.56
41306;BME280;27051;50.376;19.152;2024-03-08T04:19:46;98682.63;;;1.15;59.55
41306;BME280;27051;50.376;19.152;2024-03-08T04:22:13;98680.63;;;1.21;59.51
41306;BME280;27051;50.376;19.152;2024-03-08T04:24:44;98679.90;;;1.34;59.57
41306;BME280;27051;50.376;19.152;2024-03-08T04:27:14;98680.92;;;1.44;59.53
41306;BME280;27051;50.376;19.152;2024-03-08T04:29:41;98679.80;;;1.56;59.70
41306;BME280;27051;50.376;19.152;2024-03-08T04:32:09;98679.41;;;1.68;59.54
41306;BME280;27051;50.376;19.152;2024-03-08T04:34:37;98685.20;;;1.67;59.33
41306;BME280;27051;50.376;19.152;2024-03-08T04:37:04;98684.92;;;1.71;59.52
41306;BME280;27051;50.376;19.152;2024-03-08T04:39:32;98682.17;;;1.82;59.45
41306;BME280;27051;50.376;19.152;2024-03-08T04:42:12;98684.06;;;1.88;59.32
41306;BME280;27051;50.376;19.152;2024-03-08T04:44:40;98682.62;;;2.00;59.44
41306;BME280;27051;50.376;19.152;2024-03-08T04:47:09;98687.23;;;2.08;59.54
41306;BME280;27051;50.376;19.152;2024-03-08T04:49:48;98688.54;;;2.09;59.33
41306;BME280;27051;50.376;19.152;2024-03-08T04:52:18;98688.52;;;2.18;59.44
41306;BME280;27051;50.376;19.152;2024-03-08T04:54:45;98684.36;;;2.27;59.24
41306;BME280;27051;50.376;19.152;2024-03-08T04:57:22;98688.52;;;2.38;59.46
41306;BME280;27051;50.376;19.152;2024-03-08T05:00:18;98686.52;;;2.48;59.45
41306;BME280;27051;50.376;19.152;2024-03-08T05:02:45;98689.56;;;2.58;59.41
41306;BME280;27051;50.376;19.152;2024-03-08T05:05:14;98687.36;;;2.63;59.35
41306;BME280;27051;50.376;19.152;2024-03-08T05:07:42;98689.83;;;2.70;59.45
41306;BME280;27051;50.376;19.152;2024-03-08T05:10:19;98680.45;;;2.78;59.42
41306;BME280;27051;50.376;19.152;2024-03-08T05:12:46;98682.85;;;2.87;59.37
41306;BME280;27051;50.376;19.152;2024-03-08T05:15:16;98680.24;;;2.88;59.20
41306;BME280;27051;50.376;19.152;2024-03-08T05:17:43;98684.38;;;2.87;59.20
41306;BME280;27051;50.376;19.152;2024-03-08T05:20:13;98684.36;;;2.91;59.23
41306;BME280;27051;50.376;19.152;2024-03-08T05:22:54;98685.09;;;2.94;59.41
41306;BME280;27051;50.376;19.152;2024-03-08T05:25:23;98682.56;;;3.00;59.05
41306;BME280;27051;50.376;19.152;2024-03-08T05:28:01;98688.63;;;2.98;59.01
41306;BME280;27051;50.376;19.152;2024-03-08T05:30:31;98686.16;;;3.02;58.99
41306;BME280;27051;50.376;19.152;2024-03-08T05:33:17;98691.73;;;3.00;58.88
41306;BME280;27051;50.376;19.152;2024-03-08T05:35:47;98685.95;;;3.03;58.88
41306;BME280;27051;50.376;19.152;2024-03-08T05:38:27;98690.71;;;2.96;58.71
41306;BME280;27051;50.376;19.152;2024-03-08T05:41:03;98690.76;;;2.87;58.78
41306;BME280;27051;50.376;19.152;2024-03-08T05:43:30;98687.15;;;2.87;58.91
41306;BME280;27051;50.376;19.152;2024-03-08T05:46:02;98687.32;;;2.85;58.90
41306;BME280;27051;50.376;19.152;2024-03-08T05:48:43;98686.27;;;2.83;58.91
41306;BME280;27051;50.376;19.152;2024-03-08T05:51:23;98686.46;;;2.86;58.93
41306;BME280;27051;50.376;19.152;2024-03-08T05:53:57;98682.96;;;2.86;58.98
41306;BME280;27051;50.376;19.152;2024-03-08T05:56:28;98685.77;;;2.86;58.92
41306;BME280;27051;50.376;19.152;2024-03-08T05:58:58;98687.52;;;2.86;58.82
41306;BME280;27051;50.376;19.152;2024-03-08T06:01:47;98690.17;;;2.89;58.86
41306;BME280;27051;50.376;19.152;2024-03-08T06:04:13;98693.73;;;2.97;58.93
41306;BME280;27051;50.376;19.152;2024-03-08T06:06:40;98691.77;;;3.05;58.81
41306;BME280;27051;50.376;19.152;2024-03-08T06:09:08;98692.70;;;3.08;58.83
41306;BME280;27051;50.376;19.152;2024-03-08T06:11:35;98697.41;;;3.12;58.73
41306;BME280;27051;50.376;19.152;2024-03-08T06:14:02;98699.11;;;3.13;58.63
41306;BME280;27051;50.376;19.152;2024-03-08T06:16:29;98696.08;;;3.13;58.64
41306;BME280;27051;50.376;19.152;2024-03-08T06:18:57;98693.09;;;3.16;58.68
41306;BME280;27051;50.376;19.152;2024-03-08T06:21:24;98693.21;;;3.20;58.82
41306;BME280;27051;50.376;19.152;2024-03-08T06:23:55;98696.00;;;3.26;58.57
41306;BME280;27051;50.376;19.152;2024-03-08T06:26:25;98699.55;;;3.33;58.63
41306;BME280;27051;50.376;19.152;2024-03-08T06:28:52;98694.44;;;3.37;58.62
41306;BME280;27051;50.376;19.152;2024-03-08T06:31:19;98692.42;;;3.36;58.25
41306;BME280;27051;50.376;19.152;2024-03-08T06:33:56;98696.02;;;3.30;58.25
41306;BME280;27051;50.376;19.152;2024-03-08T06:36:32;98692.00;;;3.28;58.32
41306;BME280;27051;50.376;19.152;2024-03-08T06:39:20;98696.69;;;3.25;58.41
41306;BME280;27051;50.376;19.152;2024-03-08T06:42:07;98695.92;;;3.30;58.48
41306;BME280;27051;50.376;19.152;2024-03-08T06:44:42;98694.68;;;3.32;58.27
41306;BME280;27051;50.376;19.152;2024-03-08T06:47:36;98693.09;;;3.31;58.18
41306;BME280;27051;50.376;19.152;2024-03-08T06:50:09;98698.02;;;3.33;58.35
41306;BME280;27051;50.376;19.152;2024-03-08T06:52:36;98695.17;;;3.38;58.61
41306;BME280;27051;50.376;19.152;2024-03-08T06:55:04;98695.36;;;3.40;58.22
41306;BME280;27051;50.376;19.152;2024-03-08T06:57:37;98697.71;;;3.40;58.34
41306;BME280;27051;50.376;19.152;2024-03-08T07:00:05;98697.48;;;3.48;58.36
41306;BME280;27051;50.376;19.152;2024-03-08T07:02:32;98697.11;;;3.47;58.13
41306;BME280;27051;50.376;19.152;2024-03-08T07:05:00;98696.41;;;3.43;57.96
41306;BME280;27051;50.376;19.152;2024-03-08T07:07:27;98695.20;;;3.35;58.11
41306;BME280;27051;50.376;19.152;2024-03-08T07:09:54;98692.76;;;3.41;58.24
41306;BME280;27051;50.376;19.152;2024-03-08T07:12:21;98692.08;;;3.47;57.92
41306;BME280;27051;50.376;19.152;2024-03-08T07:14:49;98688.27;;;3.52;58.15
41306;BME280;27051;50.376;19.152;2024-03-08T07:17:23;98685.40;;;3.58;58.12
41306;BME280;27051;50.376;19.152;2024-03-08T07:19:52;98682.84;;;3.67;57.88
41306;BME280;27051;50.376;19.152;2024-03-08T07:22:19;98685.95;;;3.69;57.78
41306;BME280;27051;50.376;19.152;2024-03-08T07:24:49;98687.93;;;3.74;57.88
41306;BME280;27051;50.376;19.152;2024-03-08T07:27:17;98687.00;;;3.78;57.70
41306;BME280;27051;50.376;19.152;2024-03-08T07:29:47;98690.16;;;3.81;57.47
41306;BME280;27051;50.376;19.152;2024-03-08T07:32:23;98691.90;;;3.83;57.44
41306;BME280;27051;50.376;19.152;2024-03-08T07:34:53;98697.39;;;3.81;57.13
41306;BME280;27051;50.376;19.152;2024-03-08T07:38:01;98698.20;;;3.75;56.96
41306;BME280;27051;50.376;19.152;2024-03-08T07:40:27;98701.97;;;3.74;57.42
41306;BME280;27051;50.376;19.152;2024-03-08T07:42:54;98705.90;;;3.76;56.93
41306;BME280;27051;50.376;19.152;2024-03-08T07:45:24;98704.64;;;3.66;57.17
41306;BME280;27051;50.376;19.152;2024-03-08T07:47:51;98709.98;;;3.71;57.58
41306;BME280;27051;50.376;19.152;2024-03-08T07:50:18;98712.80;;;3.82;57.78
41306;BME280;27051;50.376;19.152;2024-03-08T07:52:56;98710.99;;;3.95;57.62
41306;BME280;27051;50.376;19.152;2024-03-08T07:55:23;98715.16;;;4.03;57.24
41306;BME280;27051;50.376;19.152;2024-03-08T07:57:50;98714.13;;;4.07;57.30
41306;BME280;27051;50.376;19.152;2024-03-08T08:00:18;98714.66;;;4.11;57.08
41306;BME280;27051;50.376;19.152;2024-03-08T08:02:56;98716.90;;;4.17;56.98
41306;BME280;27051;50.376;19.152;2024-03-08T08:05:23;98714.47;;;4.20;56.53
41306;BME280;27051;50.376;19.152;2024-03-08T08:07:54;98710.80;;;4.13;55.96
41306;BME280;27051;50.376;19.152;2024-03-08T08:10:22;98711.33;;;4.14;56.19
41306;BME280;27051;50.376;19.152;2024-03-08T08:12:51;98710.05;;;4.20;55.67
41306;BME280;27051;50.376;19.152;2024-03-08T08:15:18;98704.90;;;4.34;56.50
41306;BME280;27051;50.376;19.152;2024-03-08T08:17:46;98700.56;;;4.70;56.94
41306;BME280;27051;50.376;19.152;2024-03-08T08:20:15;98698.33;;;5.14;56.68
41306;BME280;27051;50.376;19.152;2024-03-08T08:22:58;98696.09;;;5.40;55.80
41306;BME280;27051;50.376;19.152;2024-03-08T08:25:25;98696.02;;;5.77;55.73
41306;BME280;27051;50.376;19.152;2024-03-08T08:27:52;98698.16;;;6.11;55.16
41306;BME280;27051;50.376;19.152;2024-03-08T08:30:20;98698.92;;;6.00;52.69
41306;BME280;27051;50.376;19.152;2024-03-08T08:32:47;98694.39;;;5.61;52.75
41306;BME280;27051;50.376;19.152;2024-03-08T08:35:23;98693.43;;;5.39;53.22
41306;BME280;27051;50.376;19.152;2024-03-08T08:37:53;98692.40;;;5.40;54.29
41306;BME280;27051;50.376;19.152;2024-03-08T08:43:06;98688.15;;;5.80;54.18
41306;BME280;27051;50.376;19.152;2024-03-08T08:45:33;98691.77;;;5.97;53.93
41306;BME280;27051;50.376;19.152;2024-03-08T08:48:07;98687.91;;;6.01;53.67
41306;BME280;27051;50.376;19.152;2024-03-08T08:50:37;98691.80;;;6.12;53.51
41306;BME280;27051;50.376;19.152;2024-03-08T08:53:04;98690.46;;;6.23;53.51
41306;BME280;27051;50.376;19.152;2024-03-08T08:55:44;98686.59;;;6.36;53.56
41306;BME280;27051;50.376;19.152;2024-03-08T08:58:14;98686.05;;;6.63;53.77
41306;BME280;27051;50.376;19.152;2024-03-08T09:00:41;98688.95;;;6.93;54.08
41306;BME280;27051;50.376;19.152;2024-03-08T09:03:08;98684.58;;;7.13;52.06
41306;BME280;27051;50.376;19.152;2024-03-08T09:05:35;98681.23;;;7.24;53.05
41306;BME280;27051;50.376;19.152;2024-03-08T09:08:05;98682.80;;;7.44;53.09
41306;BME280;27051;50.376;19.152;2024-03-08T09:10:33;98677.70;;;7.65;52.71
41306;BME280;27051;50.376;19.152;2024-03-08T09:13:03;98677.55;;;7.87;52.42
41306;BME280;27051;50.376;19.152;2024-03-08T09:15:40;98674.17;;;7.91;51.41
41306;BME280;27051;50.376;19.152;2024-03-08T09:18:20;98670.86;;;7.84;50.44
41306;BME280;27051;50.376;19.152;2024-03-08T09:20:48;98665.30;;;7.92;51.04
41306;BME280;27051;50.376;19.152;2024-03-08T09:23:15;98660.70;;;8.11;51.38
41306;BME280;27051;50.376;19.152;2024-03-08T09:25:42;98661.36;;;8.39;50.70
41306;BME280;27051;50.376;19.152;2024-03-08T09:28:12;98660.79;;;8.67;50.32
41306;BME280;27051;50.376;19.152;2024-03-08T09:30:42;98657.00;;;8.85;49.01
41306;BME280;27051;50.376;19.152;2024-03-08T09:33:09;98656.41;;;8.96;49.72
41306;BME280;27051;50.376;19.152;2024-03-08T09:35:36;98655.70;;;9.21;49.96
41306;BME280;27051;50.376;19.152;2024-03-08T09:38:03;98652.55;;;9.51;49.10
41306;BME280;27051;50.376;19.152;2024-03-08T09:40:30;98647.52;;;9.75;48.50
41306;BME280;27051;50.376;19.152;2024-03-08T09:42:57;98646.48;;;9.95;48.34
41306;BME280;27051;50.376;19.152;2024-03-08T09:45:28;98652.38;;;10.15;48.58
41306;BME280;27051;50.376;19.152;2024-03-08T09:47:58;98650.09;;;10.34;46.72
41306;BME280;27051;50.376;19.152;2024-03-08T09:50:39;98650.88;;;10.46;47.48
41306;BME280;27051;50.376;19.152;2024-03-08T09:53:14;98650.76;;;10.41;45.45
41306;BME280;27051;50.376;19.152;2024-03-08T09:55:56;98642.30;;;10.37;47.09
41306;BME280;27051;50.376;19.152;2024-03-08T09:58:26;98638.92;;;10.61;47.47
41306;BME280;27051;50.376;19.152;2024-03-08T10:01:34;98635.03;;;10.84;46.54
41306;BME280;27051;50.376;19.152;2024-03-08T10:04:02;98630.27;;;10.95;45.53
41306;BME280;27051;50.376;19.152;2024-03-08T10:06:29;98631.67;;;11.06;45.90
41306;BME280;27051;50.376;19.152;2024-03-08T10:08:59;98627.39;;;11.22;45.03
41306;BME280;27051;50.376;19.152;2024-03-08T10:11:26;98623.11;;;11.24;44.82
41306;BME280;27051;50.376;19.152;2024-03-08T10:13:54;98621.89;;;11.29;44.99
41306;BME280;27051;50.376;19.152;2024-03-08T10:16:21;98622.11;;;11.57;45.44
41306;BME280;27051;50.376;19.152;2024-03-08T10:19:01;98622.77;;;11.77;44.31
41306;BME280;27051;50.376;19.152;2024-03-08T10:21:38;98624.96;;;11.89;44.75
41306;BME280;27051;50.376;19.152;2024-03-08T10:24:17;98621.69;;;12.13;44.09
41306;BME280;27051;50.376;19.152;2024-03-08T10:27:16;98622.04;;;12.29;44.09
41306;BME280;27051;50.376;19.152;2024-03-08T10:29:54;98618.66;;;12.54;43.50
41306;BME280;27051;50.376;19.152;2024-03-08T10:32:49;98624.23;;;12.63;42.71
41306;BME280;27051;50.376;19.152;2024-03-08T10:38:21;98617.98;;;13.11;41.40
41306;BME280;27051;50.376;19.152;2024-03-08T10:41:14;98611.20;;;13.32;41.69
41306;BME280;27051;50.376;19.152;2024-03-08T10:44:23;98612.45;;;13.83;42.63
41306;BME280;27051;50.376;19.152;2024-03-08T10:47:42;98609.72;;;14.33;40.50
41306;BME280;27051;50.376;19.152;2024-03-08T10:53:17;98602.35;;;15.14;39.10
41306;BME280;27051;50.376;19.152;2024-03-08T10:58:47;98587.27;;;16.66;37.77
41306;BME280;27051;50.376;19.152;2024-03-08T11:04:30;98583.20;;;18.15;37.15
41306;BME280;27051;50.376;19.152;2024-03-08T11:07:31;98583.39;;;18.97;36.54
41306;BME280;27051;50.376;19.152;2024-03-08T11:12:56;98575.77;;;20.62;34.73
41306;BME280;27051;50.376;19.152;2024-03-08T11:15:45;98572.98;;;21.05;31.38
41306;BME280;27051;50.376;19.152;2024-03-08T11:18:14;98574.59;;;21.31;32.73
41306;BME280;27051;50.376;19.152;2024-03-08T11:20:44;98566.94;;;21.90;33.32
41306;BME280;27051;50.376;19.152;2024-03-08T11:23:22;98570.81;;;22.48;31.18
41306;BME280;27051;50.376;19.152;2024-03-08T11:25:50;98566.02;;;22.87;31.55
41306;BME280;27051;50.376;19.152;2024-03-08T11:28:27;98565.50;;;23.61;31.55
41306;BME280;27051;50.376;19.152;2024-03-08T11:33:30;98554.71;;;25.14;29.12
41306;BME280;27051;50.376;19.152;2024-03-08T11:41:22;98541.61;;;26.71;27.48
41306;BME280;27051;50.376;19.152;2024-03-08T11:44:05;98546.20;;;27.12;27.05
41306;BME280;27051;50.376;19.152;2024-03-08T11:46:32;98540.50;;;27.62;26.19
41306;BME280;27051;50.376;19.152;2024-03-08T11:49:00;98537.58;;;28.11;25.82
41306;BME280;27051;50.376;19.152;2024-03-08T11:51:29;98538.05;;;28.50;24.93
41306;BME280;27051;50.376;19.152;2024-03-08T11:53:57;98535.14;;;28.87;23.54
41306;BME280;27051;50.376;19.152;2024-03-08T11:56:24;98535.02;;;28.93;22.68
41306;BME280;27051;50.376;19.152;2024-03-08T11:58:56;98525.84;;;29.00;24.09
41306;BME280;27051;50.376;19.152;2024-03-08T12:01:24;98526.25;;;29.24;22.98
41306;BME280;27051;50.376;19.152;2024-03-08T12:03:55;98523.61;;;29.35;23.12
41306;BME280;27051;50.376;19.152;2024-03-08T12:06:23;98523.46;;;29.57;22.66
41306;BME280;27051;50.376;19.152;2024-03-08T12:08:50;98521.55;;;29.79;22.19
41306;BME280;27051;50.376;19.152;2024-03-08T12:11:17;98520.98;;;29.86;21.90
41306;BME280;27051;50.376;19.152;2024-03-08T12:13:45;98516.38;;;30.12;21.84
41306;BME280;27051;50.376;19.152;2024-03-08T12:16:12;98513.48;;;30.53;20.39
41306;BME280;27051;50.376;19.152;2024-03-08T12:18:39;98511.35;;;30.16;19.89
41306;BME280;27051;50.376;19.152;2024-03-08T12:21:08;98513.01;;;28.56;20.51
41306;BME280;27051;50.376;19.152;2024-03-08T12:23:37;98517.23;;;27.16;21.01
41306;BME280;27051;50.376;19.152;2024-03-08T12:26:17;98509.58;;;26.65;21.21
41306;BME280;27051;50.376;19.152;2024-03-08T12:28:45;98508.30;;;27.55;20.38
41306;BME280;27051;50.376;19.152;2024-03-08T12:31:12;98505.43;;;28.72;20.50
41306;BME280;27051;50.376;19.152;2024-03-08T12:33:53;98500.39;;;29.84;19.81
41306;BME280;27051;50.376;19.152;2024-03-08T12:36:20;98500.77;;;30.63;19.62
41306;BME280;27051;50.376;19.152;2024-03-08T12:38:48;98497.88;;;31.37;19.17
41306;BME280;27051;50.376;19.152;2024-03-08T12:41:16;98494.64;;;32.12;18.48
41306;BME280;27051;50.376;19.152;2024-03-08T12:43:43;98490.16;;;32.76;18.41
41306;BME280;27051;50.376;19.152;2024-03-08T12:46:10;98482.00;;;33.40;17.98
41306;BME280;27051;50.376;19.152;2024-03-08T12:48:38;98482.36;;;33.73;18.03
41306;BME280;27051;50.376;19.152;2024-03-08T12:51:05;98476.04;;;33.91;16.58
41306;BME280;27051;50.376;19.152;2024-03-08T12:53:32;98473.42;;;33.88;17.10
41306;BME280;27051;50.376;19.152;2024-03-08T12:55:59;98471.41;;;33.61;16.45
41306;BME280;27051;50.376;19.152;2024-03-08T12:58:26;98472.54;;;33.59;16.91
41306;BME280;27051;50.376;19.152;2024-03-08T13:00:53;98471.19;;;34.14;15.98
41306;BME280;27051;50.376;19.152;2024-03-08T13:03:20;98468.98;;;34.61;16.16
41306;BME280;27051;50.376;19.152;2024-03-08T13:05:47;98466.98;;;34.88;16.08
41306;BME280;27051;50.376;19.152;2024-03-08T13:08:24;98465.67;;;35.10;16.03
41306;BME280;27051;50.376;19.152;2024-03-08T13:10:51;98460.34;;;35.68;15.60
41306;BME280;27051;50.376;19.152;2024-03-08T13:13:17;98457.09;;;35.97;16.00
41306;BME280;27051;50.376;19.152;2024-03-08T13:15:45;98454.06;;;36.45;15.82
41306;BME280;27051;50.376;19.152;2024-03-08T13:18:12;98450.11;;;37.06;15.52
41306;BME280;27051;50.376;19.152;2024-03-08T13:20:39;98448.77;;;37.24;15.06
41306;BME280;27051;50.376;19.152;2024-03-08T13:23:06;98446.34;;;37.52;15.45
41306;BME280;27051;50.376;19.152;2024-03-08T13:25:33;98440.76;;;37.73;14.80
41306;BME280;27051;50.376;19.152;2024-03-08T13:28:00;98432.86;;;37.94;14.56
41306;BME280;27051;50.376;19.152;2024-03-08T13:30:27;98437.19;;;38.23;14.31
41306;BME280;27051;50.376;19.152;2024-03-08T13:32:54;98433.59;;;38.41;14.20
41306;BME280;27051;50.376;19.152;2024-03-08T13:35:21;98432.56;;;38.43;13.74
41306;BME280;27051;50.376;19.152;2024-03-08T13:37:48;98433.66;;;38.22;13.13
41306;BME280;27051;50.376;19.152;2024-03-08T13:40:15;98432.06;;;37.90;13.53
41306;BME280;27051;50.376;19.152;2024-03-08T13:42:42;98432.44;;;37.25;13.29
41306;BME280;27051;50.376;19.152;2024-03-08T13:45:09;98431.23;;;36.60;13.35
41306;BME280;27051;50.376;19.152;2024-03-08T13:47:37;98426.96;;;36.18;13.38
41306;BME280;27051;50.376;19.152;2024-03-08T13:50:05;98422.24;;;36.39;13.73
41306;BME280;27051;50.376;19.152;2024-03-08T13:52:33;98427.05;;;36.66;13.68
41306;BME280;27051;50.376;19.152;2024-03-08T13:55:01;98423.84;;;36.53;12.96
41306;BME280;27051;50.376;19.152;2024-03-08T13:57:28;98422.29;;;36.34;13.25